createdAt,value
2017-07-29T00:00:32.580Z,48.4
2017-07-29T00:01:34.024Z,48.2
2017-07-29T00:02:36.155Z,48.4
2017-07-29T00:03:37.955Z,48.2
2017-07-29T00:04:40.086Z,48
2017-07-29T00:05:42.216Z,48.1
2017-07-29T00:06:44.015Z,48
2017-07-29T00:07:45.813Z,48
2017-07-29T00:08:47.941Z,48
2017-07-29T00:09:49.738Z,48.3
2017-07-29T00:10:51.867Z,47.9
2017-07-29T00:11:53.998Z,48.5
2017-07-29T00:12:55.792Z,48
2017-07-29T00:13:57.921Z,48.4
2017-07-29T00:15:00.052Z,48.1
2017-07-29T00:16:01.860Z,48.5
2017-07-29T00:17:03.982Z,48.4
2017-07-29T00:18:05.781Z,48.2
2017-07-29T00:19:07.580Z,48.3
2017-07-29T00:20:09.376Z,48.2
2017-07-29T00:21:11.506Z,48.3
2017-07-29T00:22:13.301Z,48.7
2017-07-29T00:23:14.747Z,48.3
2017-07-29T00:24:16.882Z,48.2
2017-07-29T00:25:19.013Z,48.4
2017-07-29T00:26:20.811Z,48.2
2017-07-29T00:27:22.266Z,48.3
2017-07-29T00:28:24.392Z,48.4
2017-07-29T00:29:26.523Z,48.4
2017-07-29T00:30:28.655Z,48.3
2017-07-29T00:31:30.788Z,48.5
2017-07-29T00:32:32.589Z,48.1
2017-07-29T00:33:34.388Z,48.2
2017-07-29T00:34:36.518Z,48.3
2017-07-29T00:35:38.648Z,48.3
2017-07-29T00:36:40.425Z,48.2
2017-07-29T00:37:42.552Z,48.4
2017-07-29T00:38:44.682Z,48.3
2017-07-29T00:39:46.813Z,48.4
2017-07-29T00:40:48.608Z,48.3
2017-07-29T00:41:50.405Z,48.3
2017-07-29T00:42:52.536Z,48.2
2017-07-29T00:43:54.665Z,48.7
2017-07-29T00:44:56.792Z,48.2
2017-07-29T00:45:58.241Z,48.4
2017-07-29T00:46:59.707Z,48.3
2017-07-29T00:48:01.838Z,48.4
2017-07-29T00:49:03.967Z,48.4
2017-07-29T00:50:05.434Z,48.4
2017-07-29T00:51:07.232Z,48.3
2017-07-29T00:52:08.356Z,48.4
2017-07-29T00:53:10.156Z,48.3
2017-07-29T00:54:11.953Z,48.4
2017-07-29T00:55:13.751Z,48.3
2017-07-29T00:56:15.882Z,48.4
2017-07-29T00:57:17.679Z,48.4
2017-07-29T00:58:19.171Z,48.2
2017-07-29T00:59:20.968Z,48.4
2017-07-29T01:00:23.100Z,48.2
2017-07-29T01:01:24.878Z,48.9
2017-07-29T01:02:27.013Z,48.2
2017-07-29T01:03:29.143Z,48.2
2017-07-29T01:04:31.271Z,48.8
2017-07-29T01:05:32.740Z,48.2
2017-07-29T01:06:34.869Z,48.7
2017-07-29T01:07:37.002Z,48.1
2017-07-29T01:08:38.799Z,48.8
2017-07-29T01:09:40.598Z,48.6
2017-07-29T01:10:42.734Z,48.2
2017-07-29T01:11:44.579Z,48.8
2017-07-29T01:12:46.383Z,48.2
2017-07-29T01:13:48.179Z,48.5
2017-07-29T01:14:50.313Z,48.7
2017-07-29T01:15:52.111Z,48.7
2017-07-29T01:16:53.579Z,48.5
2017-07-29T01:17:55.710Z,48.2
2017-07-29T01:18:57.838Z,48.2
2017-07-29T01:19:59.309Z,48.1
2017-07-29T01:21:01.122Z,48.1
2017-07-29T01:22:02.931Z,48.7
2017-07-29T01:23:05.062Z,48.1
2017-07-29T01:24:07.190Z,48.3
2017-07-29T01:25:08.334Z,48.3
2017-07-29T01:26:10.465Z,48.2
2017-07-29T01:27:12.595Z,48.1
2017-07-29T01:28:14.728Z,48.1
2017-07-29T01:29:16.857Z,48.3
2017-07-29T01:30:19.057Z,48.2
2017-07-29T01:31:21.187Z,48.2
2017-07-29T01:32:23.318Z,48.1
2017-07-29T01:33:25.449Z,48.3
2017-07-29T01:34:27.580Z,48.9
2017-07-29T01:35:29.707Z,48.5
2017-07-29T01:36:31.481Z,48.6
2017-07-29T01:37:33.611Z,48.5
2017-07-29T01:38:35.743Z,49
2017-07-29T01:39:37.878Z,48.3
2017-07-29T01:40:40.010Z,48.2
2017-07-29T01:41:41.807Z,48.9
2017-07-29T01:42:43.936Z,48.1
2017-07-29T01:43:46.066Z,48
2017-07-29T01:44:47.866Z,48.1
2017-07-29T01:45:49.660Z,48.1
2017-07-29T01:46:51.458Z,48.7
2017-07-29T01:47:53.588Z,48.6
2017-07-29T01:48:55.035Z,48.7
2017-07-29T01:49:56.832Z,48.2
2017-07-29T01:50:58.637Z,48
2017-07-29T01:52:00.413Z,48.6
2017-07-29T01:53:01.533Z,48.1
2017-07-29T01:54:03.371Z,48
2017-07-29T01:55:05.168Z,48.6
2017-07-29T01:56:06.634Z,48.1
2017-07-29T01:57:08.764Z,48.7
2017-07-29T01:58:10.894Z,48.1
2017-07-29T01:59:13.024Z,48.6
2017-07-29T02:00:14.799Z,48.1
2017-07-29T02:01:16.644Z,48
2017-07-29T02:02:18.440Z,48.6
2017-07-29T02:03:19.898Z,48.6
2017-07-29T02:04:21.684Z,48.1
2017-07-29T02:05:23.814Z,48.3
2017-07-29T02:06:25.943Z,48.4
2017-07-29T02:07:28.076Z,48.1
2017-07-29T02:08:29.875Z,48.1
2017-07-29T02:09:32.003Z,48.6
2017-07-29T02:10:34.133Z,48.1
2017-07-29T02:11:35.936Z,48.1
2017-07-29T02:12:38.068Z,48.1
2017-07-29T02:13:39.861Z,48.1
2017-07-29T02:14:41.654Z,48.6
2017-07-29T02:15:43.782Z,48.6
2017-07-29T02:16:45.915Z,48.1
2017-07-29T02:17:47.714Z,48.1
2017-07-29T02:18:49.489Z,48.1
2017-07-29T02:19:51.619Z,48.1
2017-07-29T02:20:53.749Z,48.1
2017-07-29T02:21:55.881Z,48.1
2017-07-29T02:22:57.679Z,48.7
2017-07-29T02:23:59.508Z,48.8
2017-07-29T02:25:01.663Z,48.1
2017-07-29T02:26:03.129Z,48.6
2017-07-29T02:27:04.927Z,48.6
2017-07-29T02:28:07.056Z,48.7
2017-07-29T02:29:08.495Z,48.6
2017-07-29T02:30:10.292Z,48.5
2017-07-29T02:31:11.758Z,48.5
2017-07-29T02:32:13.557Z,48.3
2017-07-29T02:33:15.397Z,48.4
2017-07-29T02:34:17.527Z,48.4
2017-07-29T02:35:19.659Z,48.3
2017-07-29T02:36:21.101Z,48.8
2017-07-29T02:37:23.360Z,48.7
2017-07-29T02:38:25.571Z,48.6
2017-07-29T02:39:27.703Z,48.4
2017-07-29T02:40:29.834Z,48.4
2017-07-29T02:41:31.630Z,48.5
2017-07-29T02:42:33.759Z,48.9
2017-07-29T02:43:35.582Z,48.3
2017-07-29T02:44:37.359Z,48.6
2017-07-29T02:45:39.133Z,48.6
2017-07-29T02:46:40.930Z,48.6
2017-07-29T02:47:42.729Z,48.5
2017-07-29T02:48:44.856Z,48.5
2017-07-29T02:49:46.651Z,48.6
2017-07-29T02:50:48.784Z,48.3
2017-07-29T02:51:50.250Z,48.6
2017-07-29T02:52:51.365Z,48.7
2017-07-29T02:53:53.165Z,48.7
2017-07-29T02:54:54.969Z,48.4
2017-07-29T02:55:56.760Z,48.5
2017-07-29T02:56:58.888Z,48.4
2017-07-29T02:58:01.038Z,48.6
2017-07-29T02:59:02.836Z,48.6
2017-07-29T03:00:03.953Z,48.3
2017-07-29T03:01:05.749Z,48.3
2017-07-29T03:02:07.551Z,48.6
2017-07-29T03:03:09.348Z,48.6
2017-07-29T03:04:11.150Z,48.7
2017-07-29T03:05:13.280Z,48.5
2017-07-29T03:06:15.082Z,48.6
2017-07-29T03:07:16.217Z,48.4
2017-07-29T03:08:18.347Z,48.5
2017-07-29T03:09:19.790Z,48.4
2017-07-29T03:10:21.255Z,48.6
2017-07-29T03:11:23.049Z,48.6
2017-07-29T03:12:24.826Z,48.6
2017-07-29T03:13:26.954Z,48.5
2017-07-29T03:14:28.751Z,48.5
2017-07-29T03:15:30.192Z,48.6
2017-07-29T03:16:32.321Z,48.7
2017-07-29T03:17:34.450Z,48.5
2017-07-29T03:18:35.917Z,48.5
2017-07-29T03:19:37.736Z,48.4
2017-07-29T03:20:39.190Z,48.4
2017-07-29T03:21:40.975Z,48.5
2017-07-29T03:22:42.434Z,48.5
2017-07-29T03:23:44.564Z,48.5
2017-07-29T03:24:46.695Z,48.4
2017-07-29T03:25:48.494Z,48.4
2017-07-29T03:26:50.695Z,48.5
2017-07-29T03:27:52.825Z,48.6
2017-07-29T03:28:53.938Z,48.6
2017-07-29T03:29:56.072Z,48.4
2017-07-29T03:30:57.184Z,48.5
2017-07-29T03:31:58.297Z,48.7
2017-07-29T03:32:59.410Z,48.4
2017-07-29T03:34:00.876Z,48.5
2017-07-29T03:35:02.677Z,48.4
2017-07-29T03:36:04.118Z,48.4
2017-07-29T03:37:05.229Z,48.6
2017-07-29T03:38:07.006Z,48.4
2017-07-29T03:39:09.137Z,48.4
2017-07-29T03:40:11.269Z,48.4
2017-07-29T03:41:13.402Z,48.6
2017-07-29T03:42:15.536Z,48.4
2017-07-29T03:43:17.670Z,48.5
2017-07-29T03:44:19.135Z,48.4
2017-07-29T03:45:21.265Z,48.6
2017-07-29T03:46:22.709Z,48.5
2017-07-29T03:47:24.841Z,48.6
2017-07-29T03:48:26.642Z,48.5
2017-07-29T03:49:28.440Z,48.4
2017-07-29T03:50:30.216Z,48.6
2017-07-29T03:51:32.348Z,48.6
2017-07-29T03:52:33.811Z,48.5
2017-07-29T03:53:35.603Z,48.6
2017-07-29T03:54:37.400Z,48.6
2017-07-29T03:55:39.531Z,48.5
2017-07-29T03:56:41.669Z,48.4
2017-07-29T03:57:43.109Z,48.5
2017-07-29T03:58:44.883Z,48.3
2017-07-29T03:59:47.019Z,48.5
2017-07-29T04:00:48.796Z,48.5
2017-07-29T04:01:50.933Z,48.6
2017-07-29T04:02:53.063Z,48.5
2017-07-29T04:03:54.863Z,48.5
2017-07-29T04:04:56.993Z,48.3
2017-07-29T04:05:59.127Z,48.5
2017-07-29T04:07:01.258Z,48.7
2017-07-29T04:08:03.072Z,48.4
2017-07-29T04:09:05.202Z,48.3
2017-07-29T04:10:07.339Z,48.6
2017-07-29T04:11:09.137Z,48.6
2017-07-29T04:12:10.606Z,48.5
2017-07-29T04:13:12.055Z,48.3
2017-07-29T04:14:13.501Z,48.5
2017-07-29T04:15:15.301Z,48.5
2017-07-29T04:16:17.103Z,48.3
2017-07-29T04:17:19.234Z,48.4
2017-07-29T04:18:21.038Z,48.5
2017-07-29T04:19:23.173Z,48.5
2017-07-29T04:20:24.972Z,48.5
2017-07-29T04:21:26.418Z,48.4
2017-07-29T04:22:28.214Z,48.5
2017-07-29T04:23:30.348Z,48.5
2017-07-29T04:24:32.477Z,48.5
2017-07-29T04:25:33.921Z,48.3
2017-07-29T04:26:36.052Z,48.5
2017-07-29T04:27:38.182Z,48.3
2017-07-29T04:28:39.981Z,48.5
2017-07-29T04:29:42.109Z,48.5
2017-07-29T04:30:44.245Z,48.5
2017-07-29T04:31:45.710Z,48.5
2017-07-29T04:32:47.847Z,48.5
2017-07-29T04:33:49.649Z,48.4
2017-07-29T04:34:51.445Z,48.5
2017-07-29T04:35:53.244Z,48.4
2017-07-29T04:36:55.377Z,48.3
2017-07-29T04:37:57.509Z,48.5
2017-07-29T04:38:59.308Z,48.6
2017-07-29T04:40:01.442Z,48.6
2017-07-29T04:41:03.248Z,48.4
2017-07-29T04:42:04.692Z,48.6
2017-07-29T04:43:06.471Z,48.6
2017-07-29T04:44:08.602Z,48.6
2017-07-29T04:45:10.733Z,48.6
2017-07-29T04:46:12.510Z,48.5
2017-07-29T04:47:14.638Z,48.5
2017-07-29T04:48:16.439Z,48.4
2017-07-29T04:49:18.572Z,48.5
2017-07-29T04:50:20.366Z,48.4
2017-07-29T04:51:21.833Z,48.4
2017-07-29T04:52:23.962Z,48.5
2017-07-29T04:53:25.738Z,48.4
2017-07-29T04:54:27.872Z,48.5
2017-07-29T04:55:30.003Z,48.5
2017-07-29T04:56:32.183Z,48.5
2017-07-29T04:57:34.310Z,48.6
2017-07-29T04:58:35.428Z,48.5
2017-07-29T04:59:36.547Z,48.6
2017-07-29T05:00:38.685Z,48.8
2017-07-29T05:01:40.482Z,48.5
2017-07-29T05:02:42.254Z,48.4
2017-07-29T05:03:44.056Z,48.6
2017-07-29T05:04:46.184Z,48.4
2017-07-29T05:05:47.985Z,48.3
2017-07-29T05:06:50.168Z,48.6
2017-07-29T05:07:51.949Z,48.6
2017-07-29T05:08:53.747Z,48.9
2017-07-29T05:09:55.551Z,48.1
2017-07-29T05:10:57.679Z,48.1
2017-07-29T05:11:59.139Z,48.7
2017-07-29T05:13:00.914Z,48.7
2017-07-29T05:14:02.717Z,48.1
2017-07-29T05:15:04.512Z,48.2
2017-07-29T05:16:05.961Z,48.7
2017-07-29T05:17:07.735Z,48.1
2017-07-29T05:18:09.531Z,48.9
2017-07-29T05:19:11.661Z,48.2
2017-07-29T05:20:13.463Z,48.2
2017-07-29T05:21:15.262Z,48.7
2017-07-29T05:22:17.395Z,48.6
2017-07-29T05:23:19.194Z,48.2
2017-07-29T05:24:20.995Z,48.2
2017-07-29T05:25:23.128Z,48.2
2017-07-29T05:26:24.928Z,48.6
2017-07-29T05:27:27.064Z,48.1
2017-07-29T05:28:29.194Z,48.3
2017-07-29T05:29:31.325Z,48.4
2017-07-29T05:30:33.107Z,48.4
2017-07-29T05:31:34.550Z,48.3
2017-07-29T05:32:36.685Z,48.5
2017-07-29T05:33:38.498Z,48.5
2017-07-29T05:34:39.950Z,48.4
2017-07-29T05:35:41.421Z,48.3
2017-07-29T05:36:43.547Z,48.3
2017-07-29T05:37:45.327Z,48.1
2017-07-29T05:38:47.464Z,48.4
2017-07-29T05:39:48.926Z,48.5
2017-07-29T05:40:50.725Z,48.2
2017-07-29T05:41:52.855Z,48.2
2017-07-29T05:42:54.304Z,48.1
2017-07-29T05:43:56.086Z,48.4
2017-07-29T05:44:57.197Z,48.2
2017-07-29T05:45:58.973Z,48.3
2017-07-29T05:47:00.751Z,48.3
2017-07-29T05:48:02.878Z,48.3
2017-07-29T05:49:04.324Z,48.6
2017-07-29T05:50:06.124Z,48.3
2017-07-29T05:51:08.258Z,48.3
2017-07-29T05:52:09.695Z,48.3
2017-07-29T05:53:11.475Z,48.2
2017-07-29T05:54:13.602Z,48.2
2017-07-29T05:55:15.742Z,48.4
2017-07-29T05:56:17.538Z,48.4
2017-07-29T05:57:18.652Z,48.2
2017-07-29T05:58:19.766Z,48.3
2017-07-29T05:59:21.542Z,48.3
2017-07-29T06:00:23.344Z,48.3
2017-07-29T06:01:25.479Z,48.5
2017-07-29T06:02:27.273Z,48.3
2017-07-29T06:03:29.055Z,48.2
2017-07-29T06:04:30.856Z,47.7
2017-07-29T06:05:32.323Z,47.7
2017-07-29T06:06:34.456Z,47.6
2017-07-29T06:07:36.589Z,47.6
2017-07-29T06:08:38.417Z,47.5
2017-07-29T06:09:40.219Z,47.1
2017-07-29T06:10:42.354Z,47.6
2017-07-29T06:11:44.488Z,47.1
2017-07-29T06:12:46.617Z,47.6
2017-07-29T06:13:48.465Z,47.4
2017-07-29T06:14:50.264Z,47.5
2017-07-29T06:15:52.398Z,47.2
2017-07-29T06:16:53.876Z,47.1
2017-07-29T06:17:55.688Z,47.4
2017-07-29T06:18:57.454Z,47.6
2017-07-29T06:19:58.924Z,47.3
2017-07-29T06:21:01.059Z,47.4
2017-07-29T06:22:02.506Z,47.3
2017-07-29T06:23:04.279Z,47.4
2017-07-29T06:24:06.411Z,47.2
2017-07-29T06:25:07.853Z,47.3
2017-07-29T06:26:09.985Z,47.4
2017-07-29T06:27:11.764Z,47.2
2017-07-29T06:28:13.211Z,47.3
2017-07-29T06:29:15.008Z,47.4
2017-07-29T06:30:17.141Z,47.3
2017-07-29T06:31:18.942Z,47.4
2017-07-29T06:32:21.074Z,47.5
2017-07-29T06:33:23.203Z,47.5
2017-07-29T06:34:25.331Z,47.5
2017-07-29T06:35:27.131Z,47.5
2017-07-29T06:36:28.911Z,47.4
2017-07-29T06:37:30.713Z,47.4
2017-07-29T06:38:32.520Z,47.2
2017-07-29T06:39:34.654Z,47.4
2017-07-29T06:40:36.101Z,47.1
2017-07-29T06:41:38.233Z,47.5
2017-07-29T06:42:40.039Z,47.5
2017-07-29T06:43:41.489Z,47.5
2017-07-29T06:44:43.266Z,47.7
2017-07-29T06:45:45.398Z,47.5
2017-07-29T06:46:46.843Z,47.4
2017-07-29T06:47:48.974Z,47.5
2017-07-29T06:48:50.750Z,47.6
2017-07-29T06:49:52.205Z,47.4
2017-07-29T06:50:54.338Z,47.2
2017-07-29T06:51:55.784Z,47.4
2017-07-29T06:52:57.917Z,47.5
2017-07-29T06:54:00.045Z,47.3
2017-07-29T06:55:01.185Z,47.3
2017-07-29T06:56:03.324Z,47.3
2017-07-29T06:57:04.789Z,47.4
2017-07-29T06:58:06.924Z,47.4
2017-07-29T06:59:09.058Z,47.5
2017-07-29T07:00:10.506Z,47.3
2017-07-29T07:01:12.638Z,47.4
2017-07-29T07:02:14.415Z,47.6
2017-07-29T07:03:16.551Z,47.4
2017-07-29T07:04:18.682Z,47.4
2017-07-29T07:05:20.814Z,47.4
2017-07-29T07:06:22.258Z,47.5
2017-07-29T07:07:24.391Z,47.5
2017-07-29T07:08:26.524Z,47.5
2017-07-29T07:09:28.299Z,47.4
2017-07-29T07:10:30.432Z,47.6
2017-07-29T07:11:31.875Z,47.4
2017-07-29T07:12:33.659Z,47.5
2017-07-29T07:13:35.440Z,47.5
2017-07-29T07:14:36.893Z,47.5
2017-07-29T07:15:39.024Z,47.1
2017-07-29T07:16:40.826Z,47.6
2017-07-29T07:17:42.603Z,47.4
2017-07-29T07:18:44.736Z,47.3
2017-07-29T07:19:45.852Z,47.3
2017-07-29T07:20:47.654Z,47.3
2017-07-29T07:21:49.790Z,47.8
2017-07-29T07:22:51.922Z,47.4
2017-07-29T07:23:54.058Z,47.4
2017-07-29T07:24:56.191Z,47.5
2017-07-29T07:25:58.329Z,47.4
2017-07-29T07:27:00.467Z,47.5
2017-07-29T07:28:02.608Z,47.7
2017-07-29T07:29:04.739Z,47.6
2017-07-29T07:30:06.871Z,47.3
2017-07-29T07:31:09.053Z,47.4
2017-07-29T07:32:10.174Z,47.5
2017-07-29T07:33:11.968Z,47.7
2017-07-29T07:34:13.768Z,47.3
2017-07-29T07:35:15.574Z,47.3
2017-07-29T07:36:17.757Z,47.3
2017-07-29T07:37:19.895Z,47.7
2017-07-29T07:38:21.700Z,47.5
2017-07-29T07:39:23.831Z,47.5
2017-07-29T07:40:25.629Z,47.7
2017-07-29T07:41:27.761Z,47.7
2017-07-29T07:42:29.538Z,47.3
2017-07-29T07:43:31.013Z,47.3
2017-07-29T07:44:33.149Z,47.5
2017-07-29T07:45:34.930Z,47.4
2017-07-29T07:46:37.062Z,47.4
2017-07-29T07:47:38.861Z,47.8
2017-07-29T07:48:40.331Z,47.4
2017-07-29T07:49:42.133Z,47.3
2017-07-29T07:50:43.588Z,47.5
2017-07-29T07:51:45.718Z,47.4
2017-07-29T07:52:47.520Z,47.7
2017-07-29T07:53:49.657Z,47.4
2017-07-29T07:54:51.100Z,47.3
2017-07-29T07:55:52.896Z,47.3
2017-07-29T07:56:54.366Z,47.3
2017-07-29T07:57:56.496Z,47.3
2017-07-29T07:58:58.298Z,47.2
2017-07-29T08:00:00.077Z,47.2
2017-07-29T08:01:02.212Z,47.4
2017-07-29T08:02:03.730Z,47.5
2017-07-29T08:03:05.861Z,47.6
2017-07-29T08:04:07.995Z,47.1
2017-07-29T08:05:09.801Z,47.5
2017-07-29T08:06:11.936Z,47.4
2017-07-29T08:07:13.762Z,47.6
2017-07-29T08:08:15.568Z,47.6
2017-07-29T08:09:17.369Z,47.5
2017-07-29T08:10:18.155Z,47.5
2017-07-29T08:11:19.606Z,47.6
2017-07-29T08:12:21.742Z,47.4
2017-07-29T08:13:23.540Z,47.4
2017-07-29T08:14:25.339Z,47.6
2017-07-29T08:15:27.145Z,47.1
2017-07-29T08:16:28.946Z,47.1
2017-07-29T08:17:30.745Z,47.5
2017-07-29T08:18:32.877Z,47.4
2017-07-29T08:19:34.678Z,47.5
2017-07-29T08:20:36.132Z,47.3
2017-07-29T08:21:37.940Z,47.6
2017-07-29T08:22:39.796Z,47.5
2017-07-29T08:23:41.925Z,47.1
2017-07-29T08:24:43.726Z,47.6
2017-07-29T08:25:45.524Z,47.5
2017-07-29T08:26:47.657Z,47.6
2017-07-29T08:27:49.126Z,47.2
2017-07-29T08:28:51.270Z,47.5
2017-07-29T08:29:53.050Z,47.7
2017-07-29T08:30:54.854Z,47.5
2017-07-29T08:31:56.323Z,47.6
2017-07-29T08:32:57.796Z,47.5
2017-07-29T08:33:59.930Z,47.4
2017-07-29T08:35:01.726Z,47.3
2017-07-29T08:36:02.837Z,47.2
2017-07-29T08:37:04.284Z,47.5
2017-07-29T08:38:06.109Z,47.2
2017-07-29T08:39:07.920Z,47.1
2017-07-29T08:40:09.719Z,47.5
2017-07-29T08:41:11.183Z,47.3
2017-07-29T08:42:12.300Z,47.3
2017-07-29T08:43:14.150Z,47.1
2017-07-29T08:44:15.950Z,47.2
2017-07-29T08:45:17.419Z,47.3
2017-07-29T08:46:19.220Z,47.2
2017-07-29T08:47:20.690Z,47.1
2017-07-29T08:48:22.926Z,47.1
2017-07-29T08:49:24.730Z,47.1
2017-07-29T08:50:26.528Z,47.1
2017-07-29T08:51:28.666Z,47
2017-07-29T08:52:30.803Z,47.1
2017-07-29T08:53:32.603Z,47.1
2017-07-29T08:54:34.402Z,47.2
2017-07-29T08:55:35.867Z,47.3
2017-07-29T08:56:37.999Z,47
2017-07-29T08:57:40.128Z,47.2
2017-07-29T08:58:41.929Z,47.3
2017-07-29T08:59:43.398Z,47.1
2017-07-29T09:00:45.195Z,47.1
2017-07-29T09:01:47.331Z,47.3
2017-07-29T09:02:49.463Z,46.8
2017-07-29T09:03:50.918Z,47.3
2017-07-29T09:04:53.047Z,47.1
2017-07-29T09:05:54.850Z,47
2017-07-29T09:06:56.980Z,47.1
2017-07-29T09:07:59.112Z,47
2017-07-29T09:09:00.559Z,46.9
2017-07-29T09:10:02.362Z,47.2
2017-07-29T09:11:04.141Z,46.8
2017-07-29T09:12:05.937Z,47.3
2017-07-29T09:13:08.072Z,46.9
2017-07-29T09:14:10.215Z,46.8
2017-07-29T09:15:11.324Z,47.1
2017-07-29T09:16:13.459Z,46.9
2017-07-29T09:17:15.257Z,46.9
2017-07-29T09:18:16.726Z,46.9
2017-07-29T09:19:18.526Z,47.2
2017-07-29T09:20:19.979Z,47.2
2017-07-29T09:21:21.775Z,46.9
2017-07-29T09:22:23.243Z,46.9
2017-07-29T09:23:25.374Z,47.2
2017-07-29T09:24:27.261Z,47
2017-07-29T09:25:29.385Z,46.9
2017-07-29T09:26:31.519Z,47.2
2017-07-29T09:27:32.967Z,47
2017-07-29T09:28:34.442Z,47
2017-07-29T09:29:35.886Z,46.9
2017-07-29T09:30:38.017Z,46.8
2017-07-29T09:31:39.798Z,46.9
2017-07-29T09:32:41.607Z,47
2017-07-29T09:33:43.405Z,47
2017-07-29T09:34:45.539Z,46.9
2017-07-29T09:35:47.341Z,47.3
2017-07-29T09:36:49.123Z,47.1
2017-07-29T09:37:50.927Z,47.1
2017-07-29T09:38:53.059Z,46.9
2017-07-29T09:39:54.857Z,46.9
2017-07-29T09:40:56.988Z,47
2017-07-29T09:41:59.122Z,47.2
2017-07-29T09:43:00.926Z,46.8
2017-07-29T09:44:02.042Z,47.1
2017-07-29T09:45:03.943Z,47.1
2017-07-29T09:46:05.744Z,47.1
2017-07-29T09:47:07.213Z,46.9
2017-07-29T09:48:08.989Z,46.8
2017-07-29T09:49:10.436Z,47.2
2017-07-29T09:50:12.237Z,47.2
2017-07-29T09:51:13.701Z,47.1
2017-07-29T09:52:15.841Z,47.1
2017-07-29T09:53:17.622Z,47.1
2017-07-29T09:54:19.420Z,47.1
2017-07-29T09:55:21.218Z,46.7
2017-07-29T09:56:23.351Z,46.9
2017-07-29T09:57:25.152Z,47
2017-07-29T09:58:27.287Z,46.8
2017-07-29T09:59:29.417Z,46.6
2017-07-29T10:00:31.549Z,46.9
2017-07-29T10:01:33.344Z,46.9
2017-07-29T10:02:35.146Z,47
2017-07-29T10:03:36.939Z,46.9
2017-07-29T10:04:38.404Z,47
2017-07-29T10:05:40.638Z,47
2017-07-29T10:06:42.437Z,46.8
2017-07-29T10:07:44.217Z,46.8
2017-07-29T10:08:45.993Z,47
2017-07-29T10:09:47.442Z,46.9
2017-07-29T10:10:49.244Z,46.9
2017-07-29T10:11:50.695Z,47
2017-07-29T10:12:52.138Z,46.8
2017-07-29T10:13:53.935Z,47
2017-07-29T10:14:56.071Z,47
2017-07-29T10:15:57.869Z,46.7
2017-07-29T10:17:00.001Z,46.7
2017-07-29T10:18:01.801Z,46.8
2017-07-29T10:19:03.247Z,46.7
2017-07-29T10:20:04.726Z,46.7
2017-07-29T10:21:06.293Z,46.9
2017-07-29T10:22:08.074Z,46.7
2017-07-29T10:23:09.186Z,46.9
2017-07-29T10:24:11.317Z,46.7
2017-07-29T10:25:13.452Z,46.8
2017-07-29T10:26:15.585Z,46.9
2017-07-29T10:27:17.028Z,46.8
2017-07-29T10:28:19.163Z,46.7
2017-07-29T10:29:20.298Z,47.1
2017-07-29T10:30:22.102Z,47.1
2017-07-29T10:31:23.903Z,47
2017-07-29T10:32:25.375Z,47
2017-07-29T10:33:26.842Z,46.7
2017-07-29T10:34:27.954Z,46.7
2017-07-29T10:35:29.751Z,47
2017-07-29T10:36:31.528Z,46.7
2017-07-29T10:37:32.644Z,46.9
2017-07-29T10:38:34.774Z,47
2017-07-29T10:39:36.575Z,46.8
2017-07-29T10:40:37.698Z,46.9
2017-07-29T10:41:39.500Z,46.9
2017-07-29T10:42:40.947Z,46.8
2017-07-29T10:43:42.406Z,46.8
2017-07-29T10:44:44.217Z,47
2017-07-29T10:45:46.343Z,46.5
2017-07-29T10:46:48.473Z,46.8
2017-07-29T10:47:49.946Z,46.9
2017-07-29T10:48:52.075Z,47
2017-07-29T10:49:53.855Z,47.1
2017-07-29T10:50:55.657Z,47.2
2017-07-29T10:51:57.789Z,47
2017-07-29T10:52:59.257Z,47.1
2017-07-29T10:54:00.368Z,46.9
2017-07-29T10:55:01.847Z,46.9
2017-07-29T10:56:03.981Z,46.8
2017-07-29T10:57:06.113Z,47
2017-07-29T10:58:08.252Z,46.7
2017-07-29T10:59:10.378Z,47.1
2017-07-29T11:00:12.509Z,46.9
2017-07-29T11:01:14.651Z,46.8
2017-07-29T11:02:16.097Z,46.7
2017-07-29T11:03:17.564Z,46.7
2017-07-29T11:04:19.364Z,46.8
2017-07-29T11:05:21.592Z,47
2017-07-29T11:06:23.043Z,47.1
2017-07-29T11:07:24.841Z,46.9
2017-07-29T11:08:26.977Z,46.9
2017-07-29T11:09:28.772Z,46.8
2017-07-29T11:10:30.907Z,46.8
2017-07-29T11:11:32.379Z,46.8
2017-07-29T11:12:34.179Z,46.8
2017-07-29T11:13:35.973Z,46.7
2017-07-29T11:14:37.779Z,47
2017-07-29T11:15:39.578Z,47.1
2017-07-29T11:16:41.380Z,47
2017-07-29T11:17:43.517Z,47
2017-07-29T11:18:44.964Z,47.1
2017-07-29T11:19:46.770Z,46.7
2017-07-29T11:20:48.570Z,46.9
2017-07-29T11:21:50.349Z,46.7
2017-07-29T11:22:51.789Z,46.9
2017-07-29T11:23:53.591Z,46.8
2017-07-29T11:24:55.725Z,46.8
2017-07-29T11:25:57.527Z,47.3
2017-07-29T11:26:59.661Z,46.8
2017-07-29T11:28:01.487Z,47.1
2017-07-29T11:29:03.292Z,47
2017-07-29T11:30:05.093Z,47
2017-07-29T11:31:06.893Z,47.1
2017-07-29T11:32:08.003Z,46.9
2017-07-29T11:33:09.804Z,46.9
2017-07-29T11:34:11.278Z,47.2
2017-07-29T11:35:13.413Z,46.7
2017-07-29T11:36:15.547Z,46.8
2017-07-29T11:37:17.681Z,46.9
2017-07-29T11:38:19.816Z,46.8
2017-07-29T11:39:21.603Z,47
2017-07-29T11:40:23.735Z,47.2
2017-07-29T11:41:25.519Z,47.3
2017-07-29T11:42:27.301Z,47
2017-07-29T11:43:29.532Z,46.8
2017-07-29T11:44:31.667Z,46.8
2017-07-29T11:45:33.802Z,46.7
2017-07-29T11:46:35.592Z,46.8
2017-07-29T11:47:37.725Z,46.8
2017-07-29T11:48:39.192Z,47
2017-07-29T11:49:40.664Z,46.9
2017-07-29T11:50:42.798Z,46.7
2017-07-29T11:51:43.580Z,46.8
2017-07-29T11:52:45.049Z,46.8
2017-07-29T11:53:47.285Z,46.8
2017-07-29T11:54:48.732Z,46.9
2017-07-29T11:55:50.530Z,46.8
2017-07-29T11:56:52.332Z,46.7
2017-07-29T11:57:54.141Z,47
2017-07-29T11:58:56.325Z,46.8
2017-07-29T11:59:58.125Z,47.1
2017-07-29T12:01:00.259Z,47
2017-07-29T12:02:02.061Z,46.7
2017-07-29T12:03:04.191Z,46.9
2017-07-29T12:04:05.993Z,46.8
2017-07-29T12:05:07.800Z,46.7
2017-07-29T12:06:09.581Z,46.8
2017-07-29T12:07:11.708Z,46.9
2017-07-29T12:08:13.488Z,47
2017-07-29T12:09:14.627Z,47
2017-07-29T12:10:16.404Z,47
2017-07-29T12:11:18.203Z,46.9
2017-07-29T12:12:19.982Z,46.9
2017-07-29T12:13:21.454Z,46.8
2017-07-29T12:14:23.306Z,46.8
2017-07-29T12:15:25.103Z,46.6
2017-07-29T12:16:26.573Z,46.7
2017-07-29T12:17:28.350Z,46.8
2017-07-29T12:18:30.151Z,46.9
2017-07-29T12:19:31.930Z,47.1
2017-07-29T12:20:33.397Z,46.9
2017-07-29T12:21:34.862Z,46.9
2017-07-29T12:22:36.995Z,46.8
2017-07-29T12:23:38.797Z,47.1
2017-07-29T12:24:40.241Z,46.8
2017-07-29T12:25:41.712Z,47.1
2017-07-29T12:26:43.860Z,46.9
2017-07-29T12:27:45.997Z,46.9
2017-07-29T12:28:47.798Z,46.7
2017-07-29T12:29:49.933Z,46.6
2017-07-29T12:30:52.089Z,47
2017-07-29T12:31:53.879Z,47.1
2017-07-29T12:32:55.677Z,46.9
2017-07-29T12:33:57.808Z,47
2017-07-29T12:34:59.614Z,46.6
2017-07-29T12:36:01.414Z,46.6
2017-07-29T12:37:02.881Z,46.6
2017-07-29T12:38:05.015Z,46.6
2017-07-29T12:39:06.464Z,46.6
2017-07-29T12:40:08.242Z,46.5
2017-07-29T12:41:10.380Z,46.5
2017-07-29T12:42:11.842Z,46.8
2017-07-29T12:43:13.982Z,46.7
2017-07-29T12:44:15.424Z,47
2017-07-29T12:45:16.896Z,46.9
2017-07-29T12:46:18.690Z,47.1
2017-07-29T12:47:20.829Z,46.8
2017-07-29T12:48:22.962Z,46.6
2017-07-29T12:49:24.412Z,47
2017-07-29T12:50:26.211Z,46.7
2017-07-29T12:51:28.345Z,46.9
2017-07-29T12:52:30.482Z,46.9
2017-07-29T12:53:32.274Z,46.7
2017-07-29T12:54:33.745Z,46.8
2017-07-29T12:55:35.870Z,46.8
2017-07-29T12:56:37.998Z,46.7
2017-07-29T12:57:39.797Z,46.7
2017-07-29T12:58:41.930Z,46.6
2017-07-29T12:59:44.068Z,46.8
2017-07-29T13:00:46.200Z,46.9
2017-07-29T13:01:48.334Z,46.8
2017-07-29T13:02:50.136Z,46.8
2017-07-29T13:03:51.933Z,46.8
2017-07-29T13:04:53.736Z,47
2017-07-29T13:05:55.536Z,46.9
2017-07-29T13:06:57.334Z,46.9
2017-07-29T13:07:59.474Z,46.6
2017-07-29T13:09:01.251Z,46.6
2017-07-29T13:10:03.385Z,46.6
2017-07-29T13:11:05.185Z,46.5
2017-07-29T13:12:06.988Z,46.7
2017-07-29T13:13:08.451Z,46.6
2017-07-29T13:14:10.251Z,46.6
2017-07-29T13:15:12.384Z,46.4
2017-07-29T13:16:13.524Z,46.5
2017-07-29T13:17:15.656Z,46.7
2017-07-29T13:18:17.456Z,46.6
2017-07-29T13:19:19.257Z,46.5
2017-07-29T13:20:21.388Z,46.5
2017-07-29T13:21:23.189Z,46.6
2017-07-29T13:22:25.324Z,46.6
2017-07-29T13:23:27.135Z,46.9
2017-07-29T13:24:28.587Z,46.7
2017-07-29T13:25:30.382Z,46.9
2017-07-29T13:26:32.187Z,46.6
2017-07-29T13:27:34.320Z,46.5
2017-07-29T13:28:35.437Z,46.7
2017-07-29T13:29:36.577Z,46.7
2017-07-29T13:30:38.716Z,46.7
2017-07-29T13:31:40.490Z,46.8
2017-07-29T13:32:42.293Z,46.8
2017-07-29T13:33:44.075Z,46.8
2017-07-29T13:34:46.205Z,46.7
2017-07-29T13:35:47.990Z,46.7
2017-07-29T13:36:49.102Z,46.9
2017-07-29T13:37:50.904Z,46.8
2017-07-29T13:38:53.037Z,47
2017-07-29T13:39:54.816Z,46.6
2017-07-29T13:40:56.618Z,46.6
2017-07-29T13:41:58.085Z,47
2017-07-29T13:42:59.883Z,46.8
2017-07-29T13:44:02.023Z,47
2017-07-29T13:45:04.156Z,46.8
2017-07-29T13:46:05.954Z,46.8
2017-07-29T13:47:07.755Z,47.1